Wind From: 11-12-2017 04:25 Until: 16:00 warning for: Wind Level: Orange info button

Power and phone distribution networks may be disrupted for relatively long periods., Roofs and chimneys can be damaged. , Tree branches may break. , Vehicles can be deported. , Traffic may be disrupted, particularly on secondary roads in forest areas. Limit your trips. , Limit your speed in highway driving, especially if you drive a vehicle or hitch sensitive to wind. , Do not go for walks in forests or along the coast., In town, be vigilant against possible falling objects., Do not work on roofs and do not touch any electrical line fallen on the ground., Store or secure sensitive objects to wind or likely to be damaged., Always install power generators outside buildings. 


Meteo18 Weather Cam more information Meteo18 Weather Cam


Thunder radar more information blitzortung!


Rain radar more information rain snow radar


Visit our other weather sites:

Template documentation
and downloads

And another site



Weather Underground History page Text

Daily Summary for January 28, 2017 Units:  Both    English   Metric
« Previous Day
Next Day »
Daily Weekly Monthly Yearly Custom
  High: Low: Average:
Temperature: 45.9 °F /  7.7 °C 31.3 °F /  -0.4 °C 41.7 °F /  5.4 °C
Dew Point: 43.5 °F /  6.4 °C 30.6 °F /  -0.8 °C 39.2 °F /  4 °C
Humidity: 97 % 69 % 91 %
Wind Speed: 9 mph /  14.5 km/h - 1.2 mph /  1.9 km/h
Wind Gust: 10 mph /  16.1 km/h - -
Wind:- - South
Pressure: 30.2 in /  1021.9 hPa 30 in /  1014.4 hPa -
Precipitation: 0.3 in /  7.6 mm    
Historical Graphs
 
 
Tabular Data for January 28, 2017
Time Temperature Dew Point Pressure Wind Wind Speed Wind Gust Humidity Rainfall Rate (Hourly)
00:02 45.9 °F /  7.7 °C 36.3 °F /  2.4 °C 30 in /  1014.4 hPa ESE 3 mph /  4.8 km/h 5 mph /  8.0 km/h 69 % 0 in /  0.0 mm
00:07 45.9 °F /  7.7 °C 36.3 °F /  2.4 °C 30 in /  1014.4 hPa ESE 1 mph /  1.6 km/h 6 mph /  9.7 km/h 69 % 0 in /  0.0 mm
00:12 45.7 °F /  7.6 °C 36.5 °F /  2.5 °C 30 in /  1014.4 hPa SE 1 mph /  1.6 km/h 6 mph /  9.7 km/h 70 % 0 in /  0.0 mm
00:17 45.5 °F /  7.5 °C 36.3 °F /  2.4 °C 30 in /  1014.8 hPa SE 3 mph /  4.8 km/h 7 mph /  11.3 km/h 70 % 0 in /  0.0 mm
00:22 45.3 °F /  7.4 °C 36.1 °F /  2.3 °C 30 in /  1014.8 hPa ESE 2 mph /  3.2 km/h 7 mph /  11.3 km/h 70 % 0 in /  0.0 mm
00:32 45.3 °F /  7.4 °C 36.1 °F /  2.3 °C 30 in /  1014.4 hPa SE 1 mph /  1.6 km/h 6 mph /  9.7 km/h 70 % 0 in /  0.0 mm
00:42 45.7 °F /  7.6 °C 36.5 °F /  2.5 °C 30 in /  1014.4 hPa ESE 1 mph /  1.6 km/h 5 mph /  8.0 km/h 70 % 0 in /  0.0 mm
00:52 45.5 °F /  7.5 °C 36.3 °F /  2.4 °C 30 in /  1014.4 hPa Calm   5 mph /  8.0 km/h 70 % 0 in /  0.0 mm
00:57 45.3 °F /  7.4 °C 36.1 °F /  2.3 °C 30 in /  1014.4 hPa Calm   4 mph /  6.4 km/h 70 % 0 in /  0.0 mm
01:02 45.3 °F /  7.4 °C 36.1 °F /  2.3 °C 30 in /  1014.4 hPa Calm   3 mph /  4.8 km/h 70 % 0 in /  0.0 mm
01:12 45.5 °F /  7.5 °C 36.3 °F /  2.4 °C 30 in /  1014.4 hPa Calm   3 mph /  4.8 km/h 70 % 0 in /  0.0 mm
01:17 45.7 °F /  7.6 °C 36.5 °F /  2.5 °C 30 in /  1014.4 hPa East 3 mph /  4.8 km/h 3 mph /  4.8 km/h 70 % 0 in /  0.0 mm
01:22 45.7 °F /  7.6 °C 36.9 °F /  2.7 °C 30 in /  1014.4 hPa SE 3 mph /  4.8 km/h 4 mph /  6.4 km/h 71 % 0 in /  0.0 mm
01:27 45.7 °F /  7.6 °C 37.2 °F /  2.9 °C 30 in /  1014.4 hPa ESE 2 mph /  3.2 km/h 7 mph /  11.3 km/h 72 % 0 in /  0.0 mm
01:32 45.7 °F /  7.6 °C 37.2 °F /  2.9 °C 30 in /  1014.4 hPa SE 2 mph /  3.2 km/h 7 mph /  11.3 km/h 72 % 0 in /  0.0 mm
01:37 45.7 °F /  7.6 °C 37.6 °F /  3.1 °C 30 in /  1014.4 hPa SE 3 mph /  4.8 km/h 7 mph /  11.3 km/h 73 % 0 in /  0.0 mm
01:42 45.7 °F /  7.6 °C 37.6 °F /  3.1 °C 30 in /  1014.4 hPa SSE 1 mph /  1.6 km/h 9 mph /  14.5 km/h 73 % 0 in /  0.0 mm
01:47 45.3 °F /  7.4 °C 37.6 °F /  3.1 °C 30 in /  1014.4 hPa SE 1 mph /  1.6 km/h 9 mph /  14.5 km/h 74 % 0 in /  0.0 mm
01:52 45.3 °F /  7.4 °C 37.9 °F /  3.3 °C 30 in /  1014.4 hPa SE 9 mph /  14.5 km/h 9 mph /  14.5 km/h 75 % 0 in /  0.0 mm
01:57 45.3 °F /  7.4 °C 38.1 °F /  3.4 °C 30 in /  1014.4 hPa SSE 2 mph /  3.2 km/h 7 mph /  11.3 km/h 76 % 0 in /  0.0 mm
02:02 45.3 °F /  7.4 °C 38.1 °F /  3.4 °C 30 in /  1014.4 hPa South 4 mph /  6.4 km/h 10 mph /  16.1 km/h 76 % 0 in /  0.0 mm
02:07 45.3 °F /  7.4 °C 38.1 °F /  3.4 °C 30 in /  1014.4 hPa South 1 mph /  1.6 km/h 10 mph /  16.1 km/h 76 % 0 in /  0.0 mm
02:12 45.1 °F /  7.3 °C 38.3 °F /  3.5 °C 30 in /  1014.8 hPa SW 2 mph /  3.2 km/h 10 mph /  16.1 km/h 77 % 0 in /  0.0 mm
02:17 45 °F /  7.2 °C 38.1 °F /  3.4 °C 30 in /  1014.4 hPa Calm   7 mph /  11.3 km/h 77 % 0 in /  0.0 mm
02:22 44.8 °F /  7.1 °C 38.3 °F /  3.5 °C 30 in /  1014.4 hPa ESE 4 mph /  6.4 km/h 7 mph /  11.3 km/h 78 % 0 in /  0.0 mm
02:27 44.6 °F /  7.0 °C 38.5 °F /  3.6 °C 30 in /  1014.4 hPa SSE 1 mph /  1.6 km/h 7 mph /  11.3 km/h 79 % 0 in /  0.0 mm
02:32 44.8 °F /  7.1 °C 38.3 °F /  3.5 °C 30 in /  1014.4 hPa ESE 3 mph /  4.8 km/h 7 mph /  11.3 km/h 78 % 0 in /  0.0 mm
02:37 44.8 °F /  7.1 °C 38.3 °F /  3.5 °C 30 in /  1014.8 hPa South 4 mph /  6.4 km/h 5 mph /  8.0 km/h 78 % 0 in /  0.0 mm
02:42 44.8 °F /  7.1 °C 38.7 °F /  3.7 °C 30 in /  1014.4 hPa South 2 mph /  3.2 km/h 5 mph /  8.0 km/h 79 % 0 in /  0.0 mm
02:47 44.8 °F /  7.1 °C 38.7 °F /  3.7 °C 30 in /  1014.8 hPa South 1 mph /  1.6 km/h 5 mph /  8.0 km/h 79 % 0 in /  0.0 mm
02:52 44.8 °F /  7.1 °C 38.3 °F /  3.5 °C 30 in /  1014.8 hPa SE 1 mph /  1.6 km/h 5 mph /  8.0 km/h 78 % 0 in /  0.0 mm
02:57 44.8 °F /  7.1 °C 38.3 °F /  3.5 °C 30 in /  1014.8 hPa SSE 1 mph /  1.6 km/h 6 mph /  9.7 km/h 78 % 0 in /  0.0 mm
03:02 45 °F /  7.2 °C 38.5 °F /  3.6 °C 30 in /  1014.8 hPa Calm   6 mph /  9.7 km/h 78 % 0 in /  0.0 mm
03:12 45 °F /  7.2 °C 38.5 °F /  3.6 °C 30 in /  1014.8 hPa SSE 2 mph /  3.2 km/h 5 mph /  8.0 km/h 78 % 0 in /  0.0 mm
03:17 45.1 °F /  7.3 °C 38.3 °F /  3.5 °C 30 in /  1014.8 hPa SE 2 mph /  3.2 km/h 4 mph /  6.4 km/h 77 % 0 in /  0.0 mm
03:22 45.1 °F /  7.3 °C 38.3 °F /  3.5 °C 30 in /  1014.8 hPa SSE 2 mph /  3.2 km/h 6 mph /  9.7 km/h 77 % 0 in /  0.0 mm
03:27 45.1 °F /  7.3 °C 38.3 °F /  3.5 °C 30 in /  1014.8 hPa ESE 2 mph /  3.2 km/h 6 mph /  9.7 km/h 77 % 0 in /  0.0 mm
03:32 45.1 °F /  7.3 °C 38.7 °F /  3.7 °C 30 in /  1014.8 hPa ESE 3 mph /  4.8 km/h 6 mph /  9.7 km/h 78 % 0 in /  0.0 mm
03:37 45.1 °F /  7.3 °C 38.7 °F /  3.7 °C 30 in /  1014.8 hPa ESE 4 mph /  6.4 km/h 6 mph /  9.7 km/h 78 % 0 in /  0.0 mm
03:42 45.1 °F /  7.3 °C 38.7 °F /  3.7 °C 30 in /  1014.8 hPa ESE 3 mph /  4.8 km/h 7 mph /  11.3 km/h 78 % 0 in /  0.0 mm
03:47 45 °F /  7.2 °C 38.5 °F /  3.6 °C 30 in /  1014.8 hPa ESE 2 mph /  3.2 km/h 7 mph /  11.3 km/h 78 % 0 in /  0.0 mm
03:57 45.1 °F /  7.3 °C 38.3 °F /  3.5 °C 30 in /  1014.8 hPa SE 4 mph /  6.4 km/h 7 mph /  11.3 km/h 77 % 0 in /  0.0 mm
04:02 45.3 °F /  7.4 °C 38.5 °F /  3.6 °C 30 in /  1014.8 hPa SE 3 mph /  4.8 km/h 8 mph /  12.9 km/h 77 % 0 in /  0.0 mm
04:17 45.1 °F /  7.3 °C 39 °F /  3.9 °C 30 in /  1015.1 hPa ESE 4 mph /  6.4 km/h 9 mph /  14.5 km/h 79 % 0 in /  0.0 mm
04:22 45 °F /  7.2 °C 39.2 °F /  4.0 °C 30 in /  1015.1 hPa SSE 1 mph /  1.6 km/h 9 mph /  14.5 km/h 80 % 0 in /  0.0 mm
04:27 44.8 °F /  7.1 °C 39 °F /  3.9 °C 30 in /  1015.1 hPa SE 4 mph /  6.4 km/h 9 mph /  14.5 km/h 80 % 0 in /  0.0 mm
04:32 44.6 °F /  7.0 °C 39.2 °F /  4.0 °C 30 in /  1015.1 hPa Calm   7 mph /  11.3 km/h 81 % 0 in /  0.0 mm
04:37 44.4 °F /  6.9 °C 39.2 °F /  4.0 °C 30 in /  1015.1 hPa ESE 3 mph /  4.8 km/h 8 mph /  12.9 km/h 82 % 0 in /  0.0 mm
04:42 44.4 °F /  6.9 °C 39.2 °F /  4.0 °C 30 in /  1015.1 hPa SSE 1 mph /  1.6 km/h 9 mph /  14.5 km/h 82 % 0 in /  0.0 mm
04:47 44.4 °F /  6.9 °C 39.2 °F /  4.0 °C 30 in /  1015.1 hPa SE 2 mph /  3.2 km/h 9 mph /  14.5 km/h 82 % 0 in /  0.0 mm
04:52 44.2 °F /  6.8 °C 39.4 °F /  4.1 °C 30 in /  1015.1 hPa South 1 mph /  1.6 km/h 9 mph /  14.5 km/h 83 % 0 in /  0.0 mm
04:57 44.2 °F /  6.8 °C 39.4 °F /  4.1 °C 30 in /  1015.5 hPa SSW 2 mph /  3.2 km/h 9 mph /  14.5 km/h 83 % 0 in /  0.0 mm
05:02 44.1 °F /  6.7 °C 39.2 °F /  4.0 °C 30 in /  1015.1 hPa Calm   5 mph /  8.0 km/h 83 % 0 in /  0.0 mm
05:07 44.1 °F /  6.7 °C 39.2 °F /  4.0 °C 30 in /  1015.1 hPa SE 1 mph /  1.6 km/h 5 mph /  8.0 km/h 83 % 0 in /  0.0 mm
05:12 44.2 °F /  6.8 °C 39.7 °F /  4.3 °C 30 in /  1015.1 hPa WSW 3 mph /  4.8 km/h 5 mph /  8.0 km/h 84 % 0 in /  0.0 mm
05:17 44.2 °F /  6.8 °C 39.7 °F /  4.3 °C 30 in /  1015.1 hPa SSE 2 mph /  3.2 km/h 5 mph /  8.0 km/h 84 % 0 in /  0.0 mm
05:22 44.2 °F /  6.8 °C 39.7 °F /  4.3 °C 30 in /  1015.5 hPa SE 1 mph /  1.6 km/h 6 mph /  9.7 km/h 84 % 0.01 in /  0.3 mm
05:27 44.2 °F /  6.8 °C 40.1 °F /  4.5 °C 30 in /  1015.5 hPa SSE 3 mph /  4.8 km/h 6 mph /  9.7 km/h 85 % 0.01 in /  0.3 mm
05:32 44.2 °F /  6.8 °C 40.1 °F /  4.5 °C 30 in /  1015.5 hPa South 1 mph /  1.6 km/h 6 mph /  9.7 km/h 85 % 0.01 in /  0.3 mm
05:42 44.1 °F /  6.7 °C 40.1 °F /  4.5 °C 30 in /  1015.5 hPa SE 1 mph /  1.6 km/h 4 mph /  6.4 km/h 86 % 0.01 in /  0.3 mm
05:47 44.1 °F /  6.7 °C 40.1 °F /  4.5 °C 30 in /  1015.5 hPa Calm   4 mph /  6.4 km/h 86 % 0.01 in /  0.3 mm
05:52 44.1 °F /  6.7 °C 39.9 °F /  4.4 °C 30 in /  1015.5 hPa Calm   4 mph /  6.4 km/h 85 % 0.01 in /  0.3 mm
05:57 44.2 °F /  6.8 °C 40.1 °F /  4.5 °C 30 in /  1015.5 hPa SE 1 mph /  1.6 km/h 4 mph /  6.4 km/h 85 % 0.01 in /  0.3 mm
06:02 44.1 °F /  6.7 °C 39.9 °F /  4.4 °C 30 in /  1015.5 hPa SE 1 mph /  1.6 km/h 4 mph /  6.4 km/h 85 % 0.01 in /  0.3 mm
06:12 43.9 °F /  6.6 °C 39.9 °F /  4.4 °C 30 in /  1015.8 hPa SSE 1 mph /  1.6 km/h 7 mph /  11.3 km/h 86 % 0.01 in /  0.3 mm
06:17 43.9 °F /  6.6 °C 39.9 °F /  4.4 °C 30 in /  1015.8 hPa SW 4 mph /  6.4 km/h 7 mph /  11.3 km/h 86 % 0.01 in /  0.3 mm
06:22 43.7 °F /  6.5 °C 40.1 °F /  4.5 °C 30 in /  1015.8 hPa South 1 mph /  1.6 km/h 4 mph /  6.4 km/h 87 % 0 in /  0.0 mm
06:32 43.5 °F /  6.4 °C 40.3 °F /  4.6 °C 30 in /  1016.1 hPa SE 1 mph /  1.6 km/h 4 mph /  6.4 km/h 88 % 0 in /  0.0 mm
06:37 43.3 °F /  6.3 °C 40.1 °F /  4.5 °C 30 in /  1016.1 hPa Calm   5 mph /  8.0 km/h 88 % 0.02 in /  0.5 mm
06:42 43.2 °F /  6.2 °C 40.1 °F /  4.5 °C 30 in /  1016.1 hPa ESE 1 mph /  1.6 km/h 5 mph /  8.0 km/h 89 % 0.02 in /  0.5 mm
06:47 43 °F /  6.1 °C 39.9 °F /  4.4 °C 30 in /  1016.1 hPa Calm   5 mph /  8.0 km/h 89 % 0.02 in /  0.5 mm
06:52 43 °F /  6.1 °C 39.9 °F /  4.4 °C 30 in /  1016.1 hPa ESE 2 mph /  3.2 km/h 3 mph /  4.8 km/h 89 % 0.03 in /  0.8 mm
07:02 42.6 °F /  5.9 °C 39.9 °F /  4.4 °C 30 in /  1016.1 hPa SE 2 mph /  3.2 km/h 3 mph /  4.8 km/h 90 % 0.03 in /  0.8 mm
07:12 42.4 °F /  5.8 °C 39.9 °F /  4.4 °C 30 in /  1016.1 hPa SE 1 mph /  1.6 km/h 4 mph /  6.4 km/h 91 % 0.06 in /  1.5 mm
07:17 42.3 °F /  5.7 °C 39.7 °F /  4.3 °C 30 in /  1016.1 hPa Calm   4 mph /  6.4 km/h 91 % 0.06 in /  1.5 mm
07:22 42.1 °F /  5.6 °C 39.6 °F /  4.2 °C 30 in /  1016.1 hPa Calm   3 mph /  4.8 km/h 91 % 0.06 in /  1.5 mm
07:32 41.7 °F /  5.4 °C 39.6 °F /  4.2 °C 30 in /  1016.1 hPa Calm   2 mph /  3.2 km/h 92 % 0.06 in /  1.5 mm
07:37 41.7 °F /  5.4 °C 39.6 °F /  4.2 °C 30 in /  1016.1 hPa ENE 1 mph /  1.6 km/h 2 mph /  3.2 km/h 92 % 0.06 in /  1.5 mm
07:42 41.9 °F /  5.5 °C 39.7 °F /  4.3 °C 30 in /  1016.1 hPa Calm   2 mph /  3.2 km/h 92 % 0.05 in /  1.3 mm
07:47 41.7 °F /  5.4 °C 39.6 °F /  4.2 °C 30 in /  1016.1 hPa Calm   2 mph /  3.2 km/h 92 % 0.05 in /  1.3 mm
07:52 41.5 °F /  5.3 °C 39.4 °F /  4.1 °C 30 in /  1016.1 hPa Calm   2 mph /  3.2 km/h 92 % 0.05 in /  1.3 mm
07:57 41.5 °F /  5.3 °C 39.7 °F /  4.3 °C 30 in /  1016.1 hPa Calm   2 mph /  3.2 km/h 93 % 0.05 in /  1.3 mm
08:02 41.7 °F /  5.4 °C 39.9 °F /  4.4 °C 30 in /  1016.5 hPa SSE 2 mph /  3.2 km/h 2 mph /  3.2 km/h 93 % 0.05 in /  1.3 mm
08:07 41.7 °F /  5.4 °C 39.9 °F /  4.4 °C 30 in /  1016.5 hPa Calm   2 mph /  3.2 km/h 93 % 0.05 in /  1.3 mm
08:12 41.7 °F /  5.4 °C 39.9 °F /  4.4 °C 30 in /  1016.5 hPa Calm   4 mph /  6.4 km/h 93 % 0.05 in /  1.3 mm
08:17 41.7 °F /  5.4 °C 39.9 °F /  4.4 °C 30 in /  1016.5 hPa Calm   4 mph /  6.4 km/h 93 % 0.05 in /  1.3 mm
08:22 41.7 °F /  5.4 °C 39.9 °F /  4.4 °C 30 in /  1016.8 hPa Calm   4 mph /  6.4 km/h 93 % 0.06 in /  1.5 mm
08:32 41.7 °F /  5.4 °C 40.1 °F /  4.5 °C 30 in /  1016.8 hPa Calm   2 mph /  3.2 km/h 94 % 0.06 in /  1.5 mm
08:37 41.7 °F /  5.4 °C 40.1 °F /  4.5 °C 30 in /  1016.8 hPa Calm   2 mph /  3.2 km/h 94 % 0.06 in /  1.5 mm
08:42 41.7 °F /  5.4 °C 40.1 °F /  4.5 °C 30 in /  1016.8 hPa Calm   2 mph /  3.2 km/h 94 % 0.06 in /  1.5 mm
08:47 41.9 °F /  5.5 °C 40.3 °F /  4.6 °C 30 in /  1016.8 hPa Calm   2 mph /  3.2 km/h 94 % 0.06 in /  1.5 mm
08:52 41.9 °F /  5.5 °C 40.3 °F /  4.6 °C 30 in /  1016.8 hPa Calm   2 mph /  3.2 km/h 94 % 0.05 in /  1.3 mm
08:57 41.9 °F /  5.5 °C 40.3 °F /  4.6 °C 30 in /  1017.2 hPa Calm   2 mph /  3.2 km/h 94 % 0.05 in /  1.3 mm
09:02 41.7 °F /  5.4 °C 40.1 °F /  4.5 °C 30 in /  1016.8 hPa Calm   2 mph /  3.2 km/h 94 % 0.03 in /  0.8 mm
09:07 41.9 °F /  5.5 °C 40.3 °F /  4.6 °C 30 in /  1017.2 hPa East 2 mph /  3.2 km/h 2 mph /  3.2 km/h 94 % 0.03 in /  0.8 mm
09:12 41.9 °F /  5.5 °C 40.3 °F /  4.6 °C 30 in /  1017.2 hPa Calm   2 mph /  3.2 km/h 94 % 0.02 in /  0.5 mm
09:17 41.7 °F /  5.4 °C 40.1 °F /  4.5 °C 30 in /  1017.2 hPa Calm   2 mph /  3.2 km/h 94 % 0.02 in /  0.5 mm
09:22 41.7 °F /  5.4 °C 40.1 °F /  4.5 °C 30 in /  1017.2 hPa Calm   2 mph /  3.2 km/h 94 % 0.01 in /  0.3 mm
09:32 41.7 °F /  5.4 °C 40.1 °F /  4.5 °C 30 in /  1017.2 hPa Calm   2 mph /  3.2 km/h 94 % 0.01 in /  0.3 mm
09:42 41.5 °F /  5.3 °C 39.9 °F /  4.4 °C 30 in /  1017.2 hPa Calm   2 mph /  3.2 km/h 94 % 0.02 in /  0.5 mm
09:47 41.9 °F /  5.5 °C 40.6 °F /  4.8 °C 30 in /  1017.2 hPa Calm   2 mph /  3.2 km/h 95 % 0.02 in /  0.5 mm
09:52 42.1 °F /  5.6 °C 40.8 °F /  4.9 °C 30 in /  1017.2 hPa Calm   3 mph /  4.8 km/h 95 % 0.02 in /  0.5 mm
09:57 42.1 °F /  5.6 °C 40.8 °F /  4.9 °C 30 in /  1017.2 hPa Calm   3 mph /  4.8 km/h 95 % 0.02 in /  0.5 mm
10:02 42.3 °F /  5.7 °C 41 °F /  5.0 °C 30 in /  1017.2 hPa Calm   2 mph /  3.2 km/h 95 % 0.02 in /  0.5 mm
10:12 42.4 °F /  5.8 °C 41.2 °F /  5.1 °C 30 in /  1017.2 hPa Calm   2 mph /  3.2 km/h 95 % 0.03 in /  0.8 mm
10:22 42.6 °F /  5.9 °C 41.4 °F /  5.2 °C 30.1 in /  1017.5 hPa SE 1 mph /  1.6 km/h 1 mph /  1.6 km/h 95 % 0.03 in /  0.8 mm
10:32 42.6 °F /  5.9 °C 41.4 °F /  5.2 °C 30.1 in /  1017.5 hPa SE 2 mph /  3.2 km/h 2 mph /  3.2 km/h 95 % 0.03 in /  0.8 mm
10:42 42.8 °F /  6.0 °C 41.5 °F /  5.3 °C 30.1 in /  1017.5 hPa SSE 1 mph /  1.6 km/h 2 mph /  3.2 km/h 95 % 0.02 in /  0.5 mm
10:47 43 °F /  6.1 °C 41.7 °F /  5.4 °C 30.1 in /  1017.5 hPa Calm   2 mph /  3.2 km/h 95 % 0.02 in /  0.5 mm
10:52 43 °F /  6.1 °C 41.7 °F /  5.4 °C 30.1 in /  1017.8 hPa SSE 2 mph /  3.2 km/h 3 mph /  4.8 km/h 95 % 0.02 in /  0.5 mm
10:57 43 °F /  6.1 °C 41.7 °F /  5.4 °C 30.1 in /  1017.8 hPa SSW 1 mph /  1.6 km/h 3 mph /  4.8 km/h 95 % 0.02 in /  0.5 mm
11:02 42.8 °F /  6.0 °C 41.5 °F /  5.3 °C 30.1 in /  1017.8 hPa SW 2 mph /  3.2 km/h 5 mph /  8.0 km/h 95 % 0.02 in /  0.5 mm
11:12 42.8 °F /  6.0 °C 41.5 °F /  5.3 °C 30.1 in /  1017.8 hPa SW 1 mph /  1.6 km/h 4 mph /  6.4 km/h 95 % 0.01 in /  0.3 mm
11:17 42.8 °F /  6.0 °C 41.5 °F /  5.3 °C 30.1 in /  1017.8 hPa SW 3 mph /  4.8 km/h 4 mph /  6.4 km/h 95 % 0.01 in /  0.3 mm
11:22 43 °F /  6.1 °C 41.9 °F /  5.5 °C 30.1 in /  1017.8 hPa WSW 1 mph /  1.6 km/h 3 mph /  4.8 km/h 96 % 0 in /  0.0 mm
11:27 43 °F /  6.1 °C 41.9 °F /  5.5 °C 30.1 in /  1017.8 hPa SW 2 mph /  3.2 km/h 3 mph /  4.8 km/h 96 % 0 in /  0.0 mm
11:32 43 °F /  6.1 °C 41.9 °F /  5.5 °C 30.1 in /  1017.8 hPa SW 1 mph /  1.6 km/h 4 mph /  6.4 km/h 96 % 0 in /  0.0 mm
11:37 43.2 °F /  6.2 °C 42.1 °F /  5.6 °C 30.1 in /  1018.2 hPa Calm   4 mph /  6.4 km/h 96 % 0 in /  0.0 mm
11:42 43.2 °F /  6.2 °C 42.1 °F /  5.6 °C 30.1 in /  1018.2 hPa Calm   4 mph /  6.4 km/h 96 % 0 in /  0.0 mm
11:47 43.2 °F /  6.2 °C 41.9 °F /  5.5 °C 30.1 in /  1018.2 hPa Calm   4 mph /  6.4 km/h 95 % 0 in /  0.0 mm
11:52 43.2 °F /  6.2 °C 41.9 °F /  5.5 °C 30.1 in /  1018.2 hPa Calm   3 mph /  4.8 km/h 95 % 0.01 in /  0.3 mm
12:02 43 °F /  6.1 °C 41.9 °F /  5.5 °C 30.1 in /  1017.8 hPa SW 1 mph /  1.6 km/h 2 mph /  3.2 km/h 96 % 0.01 in /  0.3 mm
12:12 43 °F /  6.1 °C 41.7 °F /  5.4 °C 30.1 in /  1017.8 hPa SSW 1 mph /  1.6 km/h 2 mph /  3.2 km/h 95 % 0.02 in /  0.5 mm
12:17 43 °F /  6.1 °C 41.9 °F /  5.5 °C 30.1 in /  1017.8 hPa SSW 1 mph /  1.6 km/h 3 mph /  4.8 km/h 96 % 0.02 in /  0.5 mm
12:22 43 °F /  6.1 °C 41.9 °F /  5.5 °C 30.1 in /  1018.2 hPa SSW 2 mph /  3.2 km/h 3 mph /  4.8 km/h 96 % 0.02 in /  0.5 mm
12:32 43.2 °F /  6.2 °C 42.1 °F /  5.6 °C 30.1 in /  1018.2 hPa SSW 4 mph /  6.4 km/h 4 mph /  6.4 km/h 96 % 0.02 in /  0.5 mm
12:37 43.2 °F /  6.2 °C 42.1 °F /  5.6 °C 30.1 in /  1018.2 hPa SSW 2 mph /  3.2 km/h 6 mph /  9.7 km/h 96 % 0.02 in /  0.5 mm
12:42 43.2 °F /  6.2 °C 42.1 °F /  5.6 °C 30.1 in /  1018.2 hPa SSW 1 mph /  1.6 km/h 6 mph /  9.7 km/h 96 % 0.02 in /  0.5 mm
12:47 43.2 °F /  6.2 °C 42.1 °F /  5.6 °C 30.1 in /  1018.2 hPa SSW 1 mph /  1.6 km/h 5 mph /  8.0 km/h 96 % 0.02 in /  0.5 mm
12:52 43 °F /  6.1 °C 41.9 °F /  5.5 °C 30.1 in /  1017.8 hPa SW 1 mph /  1.6 km/h 5 mph /  8.0 km/h 96 % 0.02 in /  0.5 mm
12:57 43 °F /  6.1 °C 41.9 °F /  5.5 °C 30.1 in /  1018.2 hPa SW 1 mph /  1.6 km/h 4 mph /  6.4 km/h 96 % 0.02 in /  0.5 mm
13:02 43.2 °F /  6.2 °C 42.1 °F /  5.6 °C 30.1 in /  1017.8 hPa Calm   3 mph /  4.8 km/h 96 % 0.03 in /  0.8 mm
13:07 43.2 °F /  6.2 °C 42.1 °F /  5.6 °C 30.1 in /  1017.8 hPa SW 1 mph /  1.6 km/h 3 mph /  4.8 km/h 96 % 0.03 in /  0.8 mm
13:12 43 °F /  6.1 °C 41.9 °F /  5.5 °C 30.1 in /  1017.8 hPa SW 2 mph /  3.2 km/h 3 mph /  4.8 km/h 96 % 0.03 in /  0.8 mm
13:22 43.2 °F /  6.2 °C 42.1 °F /  5.6 °C 30.1 in /  1017.8 hPa South 2 mph /  3.2 km/h 5 mph /  8.0 km/h 96 % 0.04 in /  1.0 mm
13:27 43.2 °F /  6.2 °C 42.1 °F /  5.6 °C 30.1 in /  1017.8 hPa SSW 2 mph /  3.2 km/h 5 mph /  8.0 km/h 96 % 0.05 in /  1.3 mm
13:32 43 °F /  6.1 °C 41.9 °F /  5.5 °C 30.1 in /  1017.8 hPa SSW 2 mph /  3.2 km/h 5 mph /  8.0 km/h 96 % 0.05 in /  1.3 mm
13:37 43 °F /  6.1 °C 41.9 °F /  5.5 °C 30.1 in /  1017.8 hPa SSW 1 mph /  1.6 km/h 4 mph /  6.4 km/h 96 % 0.05 in /  1.3 mm
13:42 43.2 °F /  6.2 °C 42.1 °F /  5.6 °C 30.1 in /  1017.8 hPa SSW 1 mph /  1.6 km/h 4 mph /  6.4 km/h 96 % 0.05 in /  1.3 mm
13:47 43.2 °F /  6.2 °C 42.1 °F /  5.6 °C 30.1 in /  1017.8 hPa South 1 mph /  1.6 km/h 3 mph /  4.8 km/h 96 % 0.05 in /  1.3 mm
13:52 43.2 °F /  6.2 °C 42.1 °F /  5.6 °C 30.1 in /  1017.8 hPa SSE 1 mph /  1.6 km/h 3 mph /  4.8 km/h 96 % 0.05 in /  1.3 mm
13:57 43.3 °F /  6.3 °C 42.3 °F /  5.7 °C 30.1 in /  1017.8 hPa Calm   3 mph /  4.8 km/h 96 % 0.04 in /  1.0 mm
14:02 43.2 °F /  6.2 °C 42.1 °F /  5.6 °C 30.1 in /  1017.8 hPa SSW 1 mph /  1.6 km/h 3 mph /  4.8 km/h 96 % 0.04 in /  1.0 mm
14:07 43.2 °F /  6.2 °C 42.1 °F /  5.6 °C 30.1 in /  1017.8 hPa SSW 1 mph /  1.6 km/h 3 mph /  4.8 km/h 96 % 0.03 in /  0.8 mm
14:12 43.3 °F /  6.3 °C 42.6 °F /  5.9 °C 30.1 in /  1017.8 hPa SSW 1 mph /  1.6 km/h 3 mph /  4.8 km/h 97 % 0.03 in /  0.8 mm
14:17 43.3 °F /  6.3 °C 42.3 °F /  5.7 °C 30.1 in /  1017.8 hPa SW 2 mph /  3.2 km/h 4 mph /  6.4 km/h 96 % 0.03 in /  0.8 mm
14:22 43.3 °F /  6.3 °C 42.3 °F /  5.7 °C 30.1 in /  1017.8 hPa SSW 3 mph /  4.8 km/h 4 mph /  6.4 km/h 96 % 0.02 in /  0.5 mm
14:27 43.5 °F /  6.4 °C 42.4 °F /  5.8 °C 30.1 in /  1017.8 hPa SSW 2 mph /  3.2 km/h 4 mph /  6.4 km/h 96 % 0.03 in /  0.8 mm
14:32 43.5 °F /  6.4 °C 42.8 °F /  6.0 °C 30.1 in /  1017.8 hPa SSW 1 mph /  1.6 km/h 4 mph /  6.4 km/h 97 % 0.03 in /  0.8 mm
14:37 43.9 °F /  6.6 °C 43.2 °F /  6.2 °C 30.1 in /  1017.8 hPa SSW 2 mph /  3.2 km/h 5 mph /  8.0 km/h 97 % 0.02 in /  0.5 mm
14:42 43.9 °F /  6.6 °C 43.2 °F /  6.2 °C 30.1 in /  1017.8 hPa South 1 mph /  1.6 km/h 5 mph /  8.0 km/h 97 % 0.03 in /  0.8 mm
14:47 43.9 °F /  6.6 °C 42.8 °F /  6.0 °C 30.1 in /  1017.8 hPa South 2 mph /  3.2 km/h 5 mph /  8.0 km/h 96 % 0.03 in /  0.8 mm
14:52 43.9 °F /  6.6 °C 42.8 °F /  6.0 °C 30.1 in /  1017.8 hPa SSW 2 mph /  3.2 km/h 5 mph /  8.0 km/h 96 % 0.03 in /  0.8 mm
14:57 43.9 °F /  6.6 °C 42.8 °F /  6.0 °C 30.1 in /  1017.8 hPa SSW 1 mph /  1.6 km/h 2 mph /  3.2 km/h 96 % 0.03 in /  0.8 mm
15:02 43.9 °F /  6.6 °C 43.2 °F /  6.2 °C 30.1 in /  1017.8 hPa SSW 3 mph /  4.8 km/h 3 mph /  4.8 km/h 97 % 0.03 in /  0.8 mm
15:12 44.1 °F /  6.7 °C 43.3 °F /  6.3 °C 30.1 in /  1018.2 hPa SSW 2 mph /  3.2 km/h 4 mph /  6.4 km/h 97 % 0.03 in /  0.8 mm
15:17 44.1 °F /  6.7 °C 43.3 °F /  6.3 °C 30.1 in /  1018.2 hPa South 2 mph /  3.2 km/h 5 mph /  8.0 km/h 97 % 0.03 in /  0.8 mm
15:22 44.1 °F /  6.7 °C 43.3 °F /  6.3 °C 30.1 in /  1018.2 hPa SW 3 mph /  4.8 km/h 5 mph /  8.0 km/h 97 % 0.02 in /  0.5 mm
15:27 44.1 °F /  6.7 °C 43.3 °F /  6.3 °C 30.1 in /  1018.5 hPa SW 2 mph /  3.2 km/h 6 mph /  9.7 km/h 97 % 0.02 in /  0.5 mm
15:32 44.1 °F /  6.7 °C 43.3 °F /  6.3 °C 30.1 in /  1018.5 hPa SW 2 mph /  3.2 km/h 6 mph /  9.7 km/h 97 % 0.02 in /  0.5 mm
15:37 44.1 °F /  6.7 °C 43.3 °F /  6.3 °C 30.1 in /  1018.5 hPa SW 4 mph /  6.4 km/h 4 mph /  6.4 km/h 97 % 0.02 in /  0.5 mm
15:42 44.2 °F /  6.8 °C 43.5 °F /  6.4 °C 30.1 in /  1018.5 hPa SW 4 mph /  6.4 km/h 5 mph /  8.0 km/h 97 % 0.02 in /  0.5 mm
15:47 44.1 °F /  6.7 °C 43.3 °F /  6.3 °C 30.1 in /  1018.5 hPa WSW 3 mph /  4.8 km/h 5 mph /  8.0 km/h 97 % 0.02 in /  0.5 mm
15:52 44.2 °F /  6.8 °C 43.5 °F /  6.4 °C 30.1 in /  1018.5 hPa SW 3 mph /  4.8 km/h 5 mph /  8.0 km/h 97 % 0.02 in /  0.5 mm
15:57 44.1 °F /  6.7 °C 43.3 °F /  6.3 °C 30.1 in /  1018.5 hPa SSW 2 mph /  3.2 km/h 6 mph /  9.7 km/h 97 % 0.01 in /  0.3 mm
16:02 44.1 °F /  6.7 °C 43.3 °F /  6.3 °C 30.1 in /  1018.5 hPa SSW 1 mph /  1.6 km/h 6 mph /  9.7 km/h 97 % 0.01 in /  0.3 mm
16:07 44.1 °F /  6.7 °C 43.3 °F /  6.3 °C 30.1 in /  1018.8 hPa SW 1 mph /  1.6 km/h 5 mph /  8.0 km/h 97 % 0.01 in /  0.3 mm
16:12 44.1 °F /  6.7 °C 43.3 °F /  6.3 °C 30.1 in /  1018.8 hPa SW 2 mph /  3.2 km/h 5 mph /  8.0 km/h 97 % 0.01 in /  0.3 mm
16:17 44.1 °F /  6.7 °C 43.3 °F /  6.3 °C 30.1 in /  1018.8 hPa SSW 3 mph /  4.8 km/h 5 mph /  8.0 km/h 97 % 0 in /  0.0 mm
16:22 44.2 °F /  6.8 °C 43.5 °F /  6.4 °C 30.1 in /  1018.8 hPa SW 4 mph /  6.4 km/h 4 mph /  6.4 km/h 97 % 0 in /  0.0 mm
16:27 44.2 °F /  6.8 °C 43.5 °F /  6.4 °C 30.1 in /  1018.8 hPa SW 5 mph /  8.0 km/h 5 mph /  8.0 km/h 97 % 0 in /  0.0 mm
16:32 44.2 °F /  6.8 °C 43.5 °F /  6.4 °C 30.1 in /  1018.8 hPa SW 2 mph /  3.2 km/h 8 mph /  12.9 km/h 97 % 0 in /  0.0 mm
16:37 44.2 °F /  6.8 °C 43.2 °F /  6.2 °C 30.1 in /  1018.8 hPa SW 3 mph /  4.8 km/h 8 mph /  12.9 km/h 96 % 0 in /  0.0 mm
16:42 44.2 °F /  6.8 °C 43.2 °F /  6.2 °C 30.1 in /  1019.2 hPa SW 5 mph /  8.0 km/h 8 mph /  12.9 km/h 96 % 0 in /  0.0 mm
16:47 44.2 °F /  6.8 °C 43.2 °F /  6.2 °C 30.1 in /  1019.2 hPa SSW 3 mph /  4.8 km/h 8 mph /  12.9 km/h 96 % 0 in /  0.0 mm
16:52 44.1 °F /  6.7 °C 43 °F /  6.1 °C 30.1 in /  1019.2 hPa SW 2 mph /  3.2 km/h 6 mph /  9.7 km/h 96 % 0 in /  0.0 mm
16:57 43.9 °F /  6.6 °C 42.8 °F /  6.0 °C 30.1 in /  1019.2 hPa SW 2 mph /  3.2 km/h 6 mph /  9.7 km/h 96 % 0 in /  0.0 mm
17:02 43.9 °F /  6.6 °C 42.8 °F /  6.0 °C 30.1 in /  1019.2 hPa SW 2 mph /  3.2 km/h 5 mph /  8.0 km/h 96 % 0 in /  0.0 mm
17:07 43.9 °F /  6.6 °C 42.8 °F /  6.0 °C 30.1 in /  1019.2 hPa SW 2 mph /  3.2 km/h 4 mph /  6.4 km/h 96 % 0 in /  0.0 mm
17:12 43.9 °F /  6.6 °C 42.8 °F /  6.0 °C 30.1 in /  1019.2 hPa SW 2 mph /  3.2 km/h 4 mph /  6.4 km/h 96 % 0 in /  0.0 mm
17:17 43.7 °F /  6.5 °C 42.6 °F /  5.9 °C 30.1 in /  1019.2 hPa SW 4 mph /  6.4 km/h 4 mph /  6.4 km/h 96 % 0 in /  0.0 mm
17:22 43.7 °F /  6.5 °C 42.6 °F /  5.9 °C 30.1 in /  1019.2 hPa SW 3 mph /  4.8 km/h 4 mph /  6.4 km/h 96 % 0 in /  0.0 mm
17:27 43.5 °F /  6.4 °C 42.4 °F /  5.8 °C 30.1 in /  1019.2 hPa SW 2 mph /  3.2 km/h 5 mph /  8.0 km/h 96 % 0 in /  0.0 mm
17:32 43.3 °F /  6.3 °C 42.3 °F /  5.7 °C 30.1 in /  1019.5 hPa SW 2 mph /  3.2 km/h 5 mph /  8.0 km/h 96 % 0 in /  0.0 mm
17:37 43.3 °F /  6.3 °C 42.3 °F /  5.7 °C 30.1 in /  1019.5 hPa SSW 2 mph /  3.2 km/h 5 mph /  8.0 km/h 96 % 0 in /  0.0 mm
17:42 43.2 °F /  6.2 °C 42.1 °F /  5.6 °C 30.1 in /  1019.5 hPa SW 2 mph /  3.2 km/h 3 mph /  4.8 km/h 96 % 0 in /  0.0 mm
17:47 43.2 °F /  6.2 °C 42.4 °F /  5.8 °C 30.1 in /  1019.5 hPa SSW 1 mph /  1.6 km/h 3 mph /  4.8 km/h 97 % 0 in /  0.0 mm
17:52 43.2 °F /  6.2 °C 42.4 °F /  5.8 °C 30.1 in /  1019.5 hPa SSW 2 mph /  3.2 km/h 4 mph /  6.4 km/h 97 % 0 in /  0.0 mm
17:57 43.2 °F /  6.2 °C 42.1 °F /  5.6 °C 30.1 in /  1019.9 hPa WSW 2 mph /  3.2 km/h 6 mph /  9.7 km/h 96 % 0 in /  0.0 mm
18:02 43 °F /  6.1 °C 41.9 °F /  5.5 °C 30.1 in /  1019.9 hPa SW 2 mph /  3.2 km/h 6 mph /  9.7 km/h 96 % 0 in /  0.0 mm
18:12 43 °F /  6.1 °C 42.3 °F /  5.7 °C 30.1 in /  1019.9 hPa SW 2 mph /  3.2 km/h 6 mph /  9.7 km/h 97 % 0 in /  0.0 mm
18:17 43 °F /  6.1 °C 42.3 °F /  5.7 °C 30.1 in /  1019.9 hPa SW 2 mph /  3.2 km/h 4 mph /  6.4 km/h 97 % 0 in /  0.0 mm
18:22 42.8 °F /  6.0 °C 42.1 °F /  5.6 °C 30.1 in /  1019.9 hPa WSW 2 mph /  3.2 km/h 4 mph /  6.4 km/h 97 % 0 in /  0.0 mm
18:32 42.4 °F /  5.8 °C 41.4 °F /  5.2 °C 30.1 in /  1020.2 hPa Calm   4 mph /  6.4 km/h 96 % 0 in /  0.0 mm
18:42 41.2 °F /  5.1 °C 39.9 °F /  4.4 °C 30.1 in /  1020.2 hPa Calm   2 mph /  3.2 km/h 95 % 0 in /  0.0 mm
18:47 40.6 °F /  4.8 °C 39.6 °F /  4.2 °C 30.1 in /  1020.2 hPa Calm     96 % 0 in /  0.0 mm
18:57 40.3 °F /  4.6 °C 39.2 °F /  4.0 °C 30.1 in /  1020.2 hPa Calm     96 % 0 in /  0.0 mm
19:02 40.3 °F /  4.6 °C 39.6 °F /  4.2 °C 30.1 in /  1020.2 hPa Calm     97 % 0 in /  0.0 mm
19:07 40.3 °F /  4.6 °C 39.6 °F /  4.2 °C 30.1 in /  1020.5 hPa Calm     97 % 0 in /  0.0 mm
19:12 40.3 °F /  4.6 °C 39.6 °F /  4.2 °C 30.1 in /  1020.5 hPa Calm     97 % 0 in /  0.0 mm
19:17 39.7 °F /  4.3 °C 38.7 °F /  3.7 °C 30.1 in /  1020.5 hPa Calm     96 % 0 in /  0.0 mm
19:22 39.2 °F /  4.0 °C 38.1 °F /  3.4 °C 30.1 in /  1020.5 hPa Calm     96 % 0 in /  0.0 mm
19:32 38.3 °F /  3.5 °C 37.2 °F /  2.9 °C 30.1 in /  1020.5 hPa Calm     96 % 0 in /  0.0 mm
19:37 37.9 °F /  3.3 °C 36.9 °F /  2.7 °C 30.1 in /  1020.5 hPa Calm     96 % 0 in /  0.0 mm
19:42 37.8 °F /  3.2 °C 36.7 °F /  2.6 °C 30.1 in /  1020.5 hPa Calm     96 % 0 in /  0.0 mm
19:47 37.6 °F /  3.1 °C 36.5 °F /  2.5 °C 30.1 in /  1020.5 hPa Calm     96 % 0 in /  0.0 mm
19:52 37.2 °F /  2.9 °C 36.1 °F /  2.3 °C 30.1 in /  1020.5 hPa Calm     96 % 0 in /  0.0 mm
19:57 36.9 °F /  2.7 °C 35.8 °F /  2.1 °C 30.1 in /  1020.5 hPa Calm     96 % 0 in /  0.0 mm
20:02 36.7 °F /  2.6 °C 35.6 °F /  2.0 °C 30.1 in /  1020.5 hPa Calm     96 % 0 in /  0.0 mm
20:07 36.3 °F /  2.4 °C 35.2 °F /  1.8 °C 30.1 in /  1020.5 hPa Calm     96 % 0 in /  0.0 mm
20:12 36.1 °F /  2.3 °C 35.1 °F /  1.7 °C 30.2 in /  1020.9 hPa Calm     96 % 0 in /  0.0 mm
20:17 36 °F /  2.2 °C 35.2 °F /  1.8 °C 30.1 in /  1020.5 hPa Calm     97 % 0 in /  0.0 mm
20:22 36.3 °F /  2.4 °C 35.6 °F /  2.0 °C 30.2 in /  1020.9 hPa Calm     97 % 0 in /  0.0 mm
20:27 36.7 °F /  2.6 °C 36 °F /  2.2 °C 30.2 in /  1020.9 hPa Calm     97 % 0 in /  0.0 mm
20:32 36.5 °F /  2.5 °C 35.8 °F /  2.1 °C 30.2 in /  1020.9 hPa Calm     97 % 0 in /  0.0 mm
20:37 36.7 °F /  2.6 °C 36 °F /  2.2 °C 30.2 in /  1020.9 hPa Calm     97 % 0 in /  0.0 mm
20:42 36.7 °F /  2.6 °C 36 °F /  2.2 °C 30.2 in /  1020.9 hPa Calm     97 % 0 in /  0.0 mm
20:47 36.7 °F /  2.6 °C 36 °F /  2.2 °C 30.2 in /  1020.9 hPa Calm     97 % 0.01 in /  0.3 mm
20:52 36.5 °F /  2.5 °C 35.8 °F /  2.1 °C 30.2 in /  1021.2 hPa Calm     97 % 0.01 in /  0.3 mm
20:57 36.3 °F /  2.4 °C 35.6 °F /  2.0 °C 30.2 in /  1021.2 hPa Calm     97 % 0.01 in /  0.3 mm
21:02 36.3 °F /  2.4 °C 35.6 °F /  2.0 °C 30.2 in /  1021.2 hPa Calm     97 % 0.01 in /  0.3 mm
21:07 36.1 °F /  2.3 °C 35.4 °F /  1.9 °C 30.2 in /  1021.2 hPa Calm     97 % 0.01 in /  0.3 mm
21:12 36 °F /  2.2 °C 35.2 °F /  1.8 °C 30.2 in /  1021.2 hPa Calm     97 % 0.01 in /  0.3 mm
21:17 35.8 °F /  2.1 °C 35.1 °F /  1.7 °C 30.2 in /  1021.2 hPa Calm     97 % 0.01 in /  0.3 mm
21:22 35.2 °F /  1.8 °C 34.5 °F /  1.4 °C 30.2 in /  1021.2 hPa Calm     97 % 0.01 in /  0.3 mm
21:27 35.2 °F /  1.8 °C 34.5 °F /  1.4 °C 30.2 in /  1021.2 hPa Calm     97 % 0.01 in /  0.3 mm
21:32 35.1 °F /  1.7 °C 34.3 °F /  1.3 °C 30.2 in /  1021.2 hPa Calm     97 % 0.01 in /  0.3 mm
21:37 35.1 °F /  1.7 °C 34.3 °F /  1.3 °C 30.2 in /  1021.6 hPa Calm     97 % 0 in /  0.0 mm
21:47 34.5 °F /  1.4 °C 33.8 °F /  1.0 °C 30.2 in /  1021.6 hPa Calm     97 % 0 in /  0.0 mm
21:52 34.5 °F /  1.4 °C 33.8 °F /  1.0 °C 30.2 in /  1021.6 hPa Calm     97 % 0 in /  0.0 mm
21:57 34.9 °F /  1.6 °C 34.2 °F /  1.2 °C 30.2 in /  1021.6 hPa Calm     97 % 0 in /  0.0 mm
22:02 34.3 °F /  1.3 °C 33.6 °F /  0.9 °C 30.2 in /  1021.6 hPa Calm     97 % 0 in /  0.0 mm
22:12 33.6 °F /  0.9 °C 32.9 °F /  0.5 °C 30.2 in /  1021.6 hPa Calm     97 % 0 in /  0.0 mm
22:17 33.4 °F /  0.8 °C 32.7 °F /  0.4 °C 30.2 in /  1021.6 hPa Calm     97 % 0 in /  0.0 mm
22:22 33.1 °F /  0.6 °C 32.4 °F /  0.2 °C 30.2 in /  1021.6 hPa Calm     97 % 0 in /  0.0 mm
22:27 33.1 °F /  0.6 °C 32.4 °F /  0.2 °C 30.2 in /  1021.6 hPa Calm     97 % 0 in /  0.0 mm
22:32 32.9 °F /  0.5 °C 32.2 °F /  0.1 °C 30.2 in /  1021.6 hPa Calm     97 % 0 in /  0.0 mm
22:37 32.7 °F /  0.4 °C 32 °F /  0.0 °C 30.2 in /  1021.6 hPa Calm     97 % 0 in /  0.0 mm
22:42 32.7 °F /  0.4 °C 32 °F /  0.0 °C 30.2 in /  1021.9 hPa Calm     97 % 0 in /  0.0 mm
22:47 32.7 °F /  0.4 °C 32 °F /  0.0 °C 30.2 in /  1021.6 hPa Calm     97 % 0 in /  0.0 mm
22:52 32.7 °F /  0.4 °C 32 °F /  0.0 °C 30.2 in /  1021.9 hPa Calm     97 % 0 in /  0.0 mm
22:57 32.9 °F /  0.5 °C 32.2 °F /  0.1 °C 30.2 in /  1021.9 hPa Calm     97 % 0 in /  0.0 mm
23:02 32.7 °F /  0.4 °C 32 °F /  0.0 °C 30.2 in /  1021.9 hPa Calm     97 % 0 in /  0.0 mm
23:07 32.4 °F /  0.2 °C 31.6 °F /  -0.2 °C 30.2 in /  1021.9 hPa Calm     97 % 0 in /  0.0 mm
23:12 32.2 °F /  0.1 °C 31.5 °F /  -0.3 °C 30.2 in /  1021.9 hPa Calm     97 % 0 in /  0.0 mm
23:17 31.8 °F /  -0.1 °C 31.1 °F /  -0.5 °C 30.2 in /  1021.9 hPa Calm     97 % 0 in /  0.0 mm
23:22 31.8 °F /  -0.1 °C 31.1 °F /  -0.5 °C 30.2 in /  1021.9 hPa Calm     97 % 0 in /  0.0 mm
23:32 31.8 °F /  -0.1 °C 31.1 °F /  -0.5 °C 30.2 in /  1021.9 hPa Calm     97 % 0 in /  0.0 mm
23:37 31.8 °F /  -0.1 °C 31.1 °F /  -0.5 °C 30.2 in /  1021.9 hPa Calm     97 % 0 in /  0.0 mm
23:42 31.6 °F /  -0.2 °C 30.9 °F /  -0.6 °C 30.2 in /  1021.9 hPa Calm     97 % 0 in /  0.0 mm
23:52 31.3 °F /  -0.4 °C 30.6 °F /  -0.8 °C 30.2 in /  1021.9 hPa Calm   1 mph /  1.6 km/h 97 % 0 in /  0.0 mm
23:57 31.3 °F /  -0.4 °C 30.6 °F /  -0.8 °C 30.2 in /  1021.9 hPa Calm   1 mph /  1.6 km/h 97 % 0 in /  0.0 mm
Meteo18
Compliments of Weather Underground - 4 mb

Script developed by  Jim McMurry - jmcmurry@mwt.net Adapted for the template by  Wim van der Kuil - Leuven-Template.eu

You find our weather info also at:

European Weather Network

Weather Underground

Equipment we use:

Weather-station
Davis Vue

Weather-program
Meteohub

Weather-server
Raspberry PI 2 B+

Provider
1 and 1

Davis Vue

Meteohub

Raspberry PI 2 B+

1 and 1